Terminal Aerodrome Forecast
Issued by NWS St Louis, MO

Home | Current Version | Previous Version | Text Only | Print | Product List | Glossary On
Versions: 1 2 3 4 5 6 7 8 9 10 11 12 13 14 15 16 17 18 19 20 21 22 23 24 25
000
FTUS43 KLSX 040543
TAFSTL
TAF
KSTL 040543Z 0406/0512 12005KT P6SM OVC060
      TEMPO 0407/0410 -RA
     FM041000 11006KT 6SM -RA OVC015
     FM041500 17004KT 3SM -RA BR OVC008
     FM041800 22004KT P6SM OVC008
     FM050200 28004KT P6SM BKN045
     FM050700 VRB03KT P6SM SCT150
      TEMPO 0510/0512 4SM BR=

USA.gov is the U.S. government's official web portal to all federal, state and local government web resources and services.